createdAt,value
2022-12-06T00:02:28.610Z,100364.22
2022-12-06T00:07:33.190Z,100366.00
2022-12-06T00:12:36.431Z,100365.74
2022-12-06T00:17:42.976Z,100359.74
2022-12-06T00:22:46.229Z,100361.30
2022-12-06T00:27:50.670Z,100355.48
2022-12-06T00:32:53.676Z,100350.34
2022-12-06T00:37:57.091Z,100351.20
2022-12-06T00:43:00.098Z,100347.24
2022-12-06T00:48:03.100Z,100345.02
2022-12-06T00:53:06.038Z,100353.64
2022-12-06T00:58:09.020Z,100360.04
2022-12-06T01:03:12.496Z,100353.35
2022-12-06T01:08:17.661Z,100345.32
2022-12-06T01:13:21.713Z,100344.83
2022-12-06T01:18:24.726Z,100339.17
2022-12-06T01:23:27.643Z,100329.58
2022-12-06T01:28:31.045Z,100316.84
2022-12-06T01:33:34.154Z,100308.45
2022-12-06T01:38:37.059Z,100306.95
2022-12-06T01:43:42.744Z,100300.45
2022-12-06T01:48:47.577Z,100296.56
2022-12-06T01:53:53.654Z,100295.39
2022-12-06T01:58:58.770Z,100295.23
2022-12-06T02:04:02.175Z,100282.00
2022-12-06T02:09:07.384Z,100270.69
2022-12-06T02:14:15.743Z,100256.77
2022-12-06T02:19:31.016Z,100243.16
2022-12-06T02:25:11.906Z,100235.58
2022-12-06T02:30:34.726Z,100229.55
2022-12-06T02:35:43.414Z,100230.45
2022-12-06T02:40:53.642Z,100223.92
2022-12-06T02:45:59.394Z,100227.89
2022-12-06T02:51:08.284Z,100226.85
2022-12-06T02:56:13.738Z,100226.53
2022-12-06T03:01:30.332Z,100226.54
2022-12-06T03:06:52.042Z,100229.33
2022-12-06T03:12:08.870Z,100225.52
2022-12-06T03:17:34.102Z,100226.04
2022-12-06T03:22:42.076Z,100226.03
2022-12-06T03:27:46.976Z,100221.73
2022-12-06T03:32:51.537Z,100214.73
2022-12-06T03:38:19.614Z,100209.95
2022-12-06T03:43:23.282Z,100206.72
2022-12-06T03:48:49.129Z,100198.83
2022-12-06T03:53:58.720Z,100192.80
2022-12-06T03:59:01.950Z,100187.80
2022-12-06T04:04:05.750Z,100180.27
2022-12-06T04:09:27.417Z,100179.77
2022-12-06T04:14:39.438Z,100177.58
2022-12-06T04:19:42.444Z,100177.30
2022-12-06T04:24:45.447Z,100175.28
2022-12-06T04:30:07.092Z,100173.08
2022-12-06T04:35:28.523Z,100172.38
2022-12-06T04:40:31.427Z,100170.67
2022-12-06T04:45:34.333Z,100165.68
2022-12-06T04:50:37.440Z,100163.27
2022-12-06T04:55:40.346Z,100159.16
2022-12-06T05:00:47.883Z,100159.20
2022-12-06T05:05:50.864Z,100150.97
2022-12-06T05:10:53.873Z,100144.70
2022-12-06T05:16:00.067Z,100136.71
2022-12-06T05:21:05.908Z,100130.75
2022-12-06T05:26:13.137Z,100127.09
2022-12-06T05:31:16.948Z,100123.07
2022-12-06T05:36:25.670Z,100118.69
2022-12-06T05:41:28.704Z,100115.57
2022-12-06T05:46:31.807Z,100114.19
2022-12-06T05:51:34.934Z,100114.38
2022-12-06T05:56:40.075Z,100107.39
2022-12-06T06:01:43.448Z,100109.72
2022-12-06T06:06:46.599Z,100103.69
2022-12-06T06:11:49.606Z,100102.45
2022-12-06T06:16:52.569Z,100105.71
2022-12-06T06:21:55.618Z,100108.80
2022-12-06T06:26:58.624Z,100112.08
2022-12-06T06:32:01.765Z,100107.91
2022-12-06T06:37:04.944Z,100110.83
2022-12-06T06:42:08.255Z,100106.02
2022-12-06T06:47:11.264Z,100102.93
2022-12-06T06:52:14.731Z,100105.73
2022-12-06T06:57:18.606Z,100112.32
2022-12-06T07:02:21.584Z,100115.11
2022-12-06T07:07:25.134Z,100107.70
2022-12-06T07:12:28.144Z,100105.15
2022-12-06T07:17:31.249Z,100098.82
2022-12-06T07:22:34.256Z,100103.48
2022-12-06T07:27:37.677Z,100108.19
2022-12-06T07:32:40.676Z,100107.30
2022-12-06T07:37:45.422Z,100104.75
2022-12-06T07:43:07.172Z,100106.71
2022-12-06T07:48:11.615Z,100109.17
2022-12-06T07:53:14.922Z,100107.00
2022-12-06T07:58:18.033Z,100112.92
2022-12-06T08:03:21.245Z,100109.95
2022-12-06T08:08:28.545Z,100095.60
2022-12-06T08:13:34.014Z,100096.10
2022-12-06T08:18:37.735Z,100090.86
2022-12-06T08:23:40.747Z,100087.06
2022-12-06T08:28:43.855Z,100089.02
2022-12-06T08:33:47.608Z,100081.98
2022-12-06T08:38:52.533Z,100081.48
2022-12-06T08:43:56.145Z,100074.92
2022-12-06T08:48:59.359Z,100070.85
2022-12-06T08:54:03.671Z,100075.13
2022-12-06T08:59:07.574Z,100076.29
2022-12-06T09:04:11.718Z,100071.38
2022-12-06T09:09:16.526Z,100065.00
2022-12-06T09:14:21.807Z,100063.92
2022-12-06T09:19:25.381Z,100061.39
2022-12-06T09:24:28.490Z,100057.40
2022-12-06T09:29:33.819Z,100058.23
2022-12-06T09:34:40.340Z,100049.27
2022-12-06T09:39:48.981Z,100045.00
2022-12-06T09:45:16.980Z,100040.19
2022-12-06T09:50:49.059Z,100040.44
2022-12-06T09:56:15.610Z,100038.13
2022-12-06T10:01:32.387Z,100028.69
2022-12-06T10:06:44.897Z,100026.33
2022-12-06T10:12:03.262Z,100022.66
2022-12-06T10:17:09.730Z,100018.98
2022-12-06T10:22:41.824Z,100007.05
2022-12-06T10:27:48.005Z,100009.25
2022-12-06T10:32:57.754Z,100001.45
2022-12-06T10:38:06.610Z,99991.35
2022-12-06T10:43:23.957Z,99979.02
2022-12-06T10:48:43.647Z,99971.05
2022-12-06T10:54:22.495Z,99974.83
2022-12-06T10:59:51.920Z,99972.59
2022-12-06T11:05:02.300Z,99965.17
2022-12-06T11:10:15.766Z,99960.55
2022-12-06T11:15:25.515Z,99953.61
2022-12-06T11:20:35.798Z,99945.67
2022-12-06T11:25:59.182Z,99942.88
2022-12-06T11:31:11.661Z,99945.26
2022-12-06T11:36:15.328Z,99934.71
2022-12-06T11:41:24.272Z,99928.12
2022-12-06T11:46:27.668Z,99923.26
2022-12-06T11:51:30.796Z,99925.64
2022-12-06T11:56:39.143Z,99927.19
2022-12-06T12:01:49.134Z,99922.73
2022-12-06T12:07:10.641Z,99921.53
2022-12-06T12:12:18.254Z,99919.11
2022-12-06T12:17:25.462Z,99913.21
2022-12-06T12:22:38.401Z,99905.61
2022-12-06T12:27:41.412Z,99905.75
2022-12-06T12:32:46.671Z,99898.83
2022-12-06T12:37:52.704Z,99896.91
2022-12-06T12:43:01.380Z,99890.86
2022-12-06T12:48:22.474Z,99882.20
2022-12-06T12:53:33.504Z,99884.27
2022-12-06T12:58:37.126Z,99885.27
2022-12-06T13:03:51.234Z,99886.83
2022-12-06T13:09:00.964Z,99884.22
2022-12-06T13:14:05.094Z,99873.86
2022-12-06T13:19:16.812Z,99865.56
2022-12-06T13:24:27.742Z,99861.61
2022-12-06T13:30:07.270Z,99856.44
2022-12-06T13:35:37.604Z,99852.64
2022-12-06T13:40:48.808Z,99854.50
2022-12-06T13:45:52.980Z,99855.30
2022-12-06T13:51:11.161Z,99849.73
2022-12-06T13:56:37.346Z,99846.96
2022-12-06T14:01:50.380Z,99841.83
2022-12-06T14:06:57.495Z,99838.41
2022-12-06T14:12:01.114Z,99836.36
2022-12-06T14:17:11.511Z,99831.02
2022-12-06T14:22:14.496Z,99829.83
2022-12-06T14:27:21.038Z,99826.05
2022-12-06T14:32:35.970Z,99825.52
2022-12-06T14:37:39.675Z,99822.21
2022-12-06T14:43:01.848Z,99817.55
2022-12-06T14:48:05.272Z,99815.77
2022-12-06T14:53:13.601Z,99818.48
2022-12-06T14:58:20.808Z,99810.35
2022-12-06T15:03:33.460Z,99815.13
2022-12-06T15:08:38.915Z,99815.47
2022-12-06T15:13:41.905Z,99810.99
2022-12-06T15:18:59.357Z,99809.27
2022-12-06T15:24:02.467Z,99803.44
2022-12-06T15:29:05.575Z,99798.27
2022-12-06T15:34:25.986Z,99791.73
2022-12-06T15:39:29.368Z,99784.33
2022-12-06T15:44:32.410Z,99778.14
2022-12-06T15:49:36.234Z,99773.65
2022-12-06T15:54:39.344Z,99765.13
2022-12-06T15:59:42.450Z,99759.23
2022-12-06T16:04:48.496Z,99755.92
2022-12-06T16:09:51.530Z,99749.69
2022-12-06T16:14:54.537Z,99745.38
2022-12-06T16:20:16.188Z,99742.24
2022-12-06T16:25:19.393Z,99738.27
2022-12-06T16:30:34.102Z,99740.16
2022-12-06T16:35:37.091Z,99736.23
2022-12-06T16:40:40.754Z,99730.39
2022-12-06T16:45:45.855Z,99725.72
2022-12-06T16:50:49.068Z,99721.59
2022-12-06T16:55:52.175Z,99720.91
2022-12-06T17:00:55.734Z,99717.63
2022-12-06T17:05:58.782Z,99714.54
2022-12-06T17:11:21.847Z,99709.53
2022-12-06T17:16:24.962Z,99709.86
2022-12-06T17:21:28.303Z,99710.02
2022-12-06T17:26:32.983Z,99710.88
2022-12-06T17:31:38.298Z,99710.02
2022-12-06T17:36:42.233Z,99708.98
2022-12-06T17:42:04.204Z,99706.05
2022-12-06T17:47:07.702Z,99706.73
2022-12-06T17:52:14.007Z,99706.91
2022-12-06T17:57:18.666Z,99708.80
2022-12-06T18:02:26.099Z,99707.27
2022-12-06T18:07:29.464Z,99708.50
2022-12-06T18:12:34.962Z,99703.67
2022-12-06T18:17:38.139Z,99701.09
2022-12-06T18:22:41.244Z,99700.25
2022-12-06T18:27:44.455Z,99695.26
2022-12-06T18:32:47.574Z,99700.61
2022-12-06T18:37:50.679Z,99696.98
2022-12-06T18:42:53.780Z,99688.21
2022-12-06T18:47:56.993Z,99688.23
2022-12-06T18:53:01.738Z,99688.10
2022-12-06T18:58:04.949Z,99683.28
2022-12-06T19:03:08.060Z,99680.38
2022-12-06T19:08:11.333Z,99677.75
2022-12-06T19:13:14.624Z,99674.65
2022-12-06T19:18:17.898Z,99672.75
2022-12-06T19:23:22.541Z,99666.40
2022-12-06T19:28:25.552Z,99664.36
2022-12-06T19:33:30.510Z,99658.34
2022-12-06T19:38:34.546Z,99654.71
2022-12-06T19:43:56.391Z,99645.90
2022-12-06T19:49:05.534Z,99642.43
2022-12-06T19:54:10.515Z,99636.38
2022-12-06T19:59:13.895Z,99629.28
2022-12-06T20:04:22.723Z,99626.70
2022-12-06T20:09:28.725Z,99622.21
2022-12-06T20:14:48.895Z,99616.70
2022-12-06T20:19:52.041Z,99616.02
2022-12-06T20:24:55.149Z,99608.06
2022-12-06T20:29:58.286Z,99610.13
2022-12-06T20:35:01.593Z,99607.02
2022-12-06T20:40:05.567Z,99602.55
2022-12-06T20:45:09.222Z,99606.20
2022-12-06T20:50:12.535Z,99594.09
2022-12-06T20:55:15.646Z,99584.59
2022-12-06T21:00:19.449Z,99574.09
2022-12-06T21:05:22.479Z,99569.81
2022-12-06T21:10:25.595Z,99573.96
2022-12-06T21:15:29.504Z,99574.51
2022-12-06T21:20:38.095Z,99571.09
2022-12-06T21:25:41.156Z,99563.15
2022-12-06T21:30:50.501Z,99565.02
2022-12-06T21:35:54.034Z,99563.13
2022-12-06T21:41:01.568Z,99558.63
2022-12-06T21:46:12.866Z,99551.73
2022-12-06T21:51:16.972Z,99549.32
2022-12-06T21:56:23.358Z,99544.84
2022-12-06T22:01:28.561Z,99537.95
2022-12-06T22:06:32.630Z,99527.27
2022-12-06T22:11:36.356Z,99524.67
2022-12-06T22:16:39.438Z,99515.71
2022-12-06T22:21:42.490Z,99504.84
2022-12-06T22:26:45.494Z,99502.27
2022-12-06T22:31:48.538Z,99496.08
2022-12-06T22:36:51.820Z,99494.19
2022-12-06T22:41:55.543Z,99488.15
2022-12-06T22:46:58.881Z,99490.89
2022-12-06T22:52:01.961Z,99493.28
2022-12-06T22:57:04.861Z,99486.57
2022-12-06T23:02:07.904Z,99479.14
2022-12-06T23:07:11.291Z,99477.75
2022-12-06T23:12:14.190Z,99478.10
2022-12-06T23:17:17.200Z,99472.23
2022-12-06T23:22:20.123Z,99463.80
2022-12-06T23:27:23.211Z,99462.94
2022-12-06T23:32:26.430Z,99465.34
2022-12-06T23:37:29.424Z,99455.69
2022-12-06T23:42:32.534Z,99451.20
2022-12-06T23:47:35.540Z,99440.00
2022-12-06T23:52:38.564Z,99438.97
2022-12-06T23:57:41.658Z,99441.21
